Time;durP1;ratioP1;P1;durP2;ratioP2;P2;SDS_P1;SDS_P2;PMS_P1;PMS_P2;Temp;Humidity;BMP_temperature;BMP_pressure;BME280_temperature;BME280_humidity;BME280_pressure;Samples;Min_cycle;Max_cycle;Signal;HPM_P1;HPM_P2
2021/07/13 00:00:44;;;;;;;3.50;3.15;;;21.50;69.60;;;;;;5057383;28;20033;-83
2021/07/13 00:03:10;;;;;;;6.75;4.00;;;21.50;69.60;;;;;;5072162;28;20032;-83
2021/07/13 00:05:36;;;;;;;6.30;4.10;;;21.40;68.20;;;;;;5071963;28;20039;-83
2021/07/13 00:08:02;;;;;;;4.80;2.95;;;21.40;68.60;;;;;;5073128;28;20126;-83
2021/07/13 00:10:29;;;;;;;3.13;2.83;;;21.30;69.70;;;;;;5052591;28;20158;-83
2021/07/13 00:12:55;;;;;;;7.38;3.50;;;21.30;69.40;;;;;;5090848;28;20491;-82
2021/07/13 00:15:23;;;;;;;4.72;3.70;;;21.30;69.80;;;;;;5058879;28;20032;-83
2021/07/13 00:17:53;;;;;;;3.92;3.10;;;21.30;71.00;;;;;;5067806;28;20042;-83
2021/07/13 00:20:18;;;;;;;3.40;3.08;;;21.30;71.20;;;;;;5052790;28;20032;-83
2021/07/13 00:22:44;;;;;;;3.55;3.15;;;21.30;70.90;;;;;;5072756;28;20040;-82
2021/07/13 00:25:10;;;;;;;6.85;3.50;;;21.40;70.30;;;;;;5073247;27;20202;-82
2021/07/13 00:27:36;;;;;;;4.45;3.60;;;21.40;71.20;;;;;;5086478;28;20085;-82
2021/07/13 00:30:03;;;;;;;3.88;3.40;;;21.40;70.30;;;;;;5071779;28;20430;-82
2021/07/13 00:32:28;;;;;;;6.72;3.35;;;21.40;70.10;;;;;;5068142;28;20028;-83
2021/07/13 00:34:54;;;;;;;3.80;3.35;;;21.30;71.00;;;;;;5072957;28;20496;-83
2021/07/13 00:37:19;;;;;;;6.95;3.40;;;21.30;72.90;;;;;;5071208;28;20464;-83
2021/07/13 00:39:45;;;;;;;3.17;2.78;;;21.40;72.40;;;;;;5090909;28;20032;-82
2021/07/13 00:42:15;;;;;;;4.03;3.63;;;21.40;72.70;;;;;;5056920;28;20496;-82
2021/07/13 00:44:42;;;;;;;3.10;2.80;;;21.30;71.10;;;;;;5065034;28;20116;-83
2021/07/13 00:47:08;;;;;;;3.60;3.30;;;21.20;71.20;;;;;;5049505;28;20036;-83
2021/07/13 00:49:33;;;;;;;5.55;4.25;;;21.30;71.70;;;;;;5070136;28;20555;-83
2021/07/13 00:51:59;;;;;;;10.85;8.13;;;21.20;71.20;;;;;;5070986;28;20119;-82
2021/07/13 00:54:25;;;;;;;9.13;7.90;;;21.10;72.10;;;;;;5072071;28;20039;-83
2021/07/13 00:56:52;;;;;;;9.30;7.75;;;21.00;71.40;;;;;;5054802;28;20028;-82
2021/07/13 00:59:17;;;;;;;8.07;7.28;;;21.00;72.40;;;;;;5072400;28;20027;-82
2021/07/13 01:01:46;;;;;;;9.52;7.07;;;21.00;73.10;;;;;;5071164;28;20032;-82
2021/07/13 01:04:12;;;;;;;6.75;4.38;;;20.90;72.90;;;;;;5076580;28;20024;-83
2021/07/13 01:07:04;;;;;;;11.35;6.93;;;20.90;73.20;;;;;;5071246;28;20058;-83
2021/07/13 01:09:59;;;;;;;4.75;4.13;;;20.90;72.70;;;;;;5058272;28;20180;-82
2021/07/13 01:12:37;;;;;;;10.05;6.47;;;20.80;72.60;;;;;;5072795;28;20035;-83
2021/07/13 01:15:03;;;;;;;8.88;7.75;;;20.80;73.70;;;;;;5056438;28;20032;-83
2021/07/13 01:17:33;;;;;;;11.40;8.18;;;20.70;74.40;;;;;;5072104;28;20038;-82
2021/07/13 01:20:27;;;;;;;9.85;8.90;;;20.60;73.10;;;;;;5057203;28;20815;-82
2021/07/13 01:23:02;;;;;;;7.03;4.90;;;20.60;74.50;;;;;;5089189;28;20030;-82
2021/07/13 01:25:39;;;;;;;4.80;4.40;;;20.60;74.30;;;;;;5070184;28;20028;-82
2021/07/13 01:28:14;;;;;;;6.15;4.90;;;20.70;74.80;;;;;;5088080;28;20058;-82
2021/07/13 01:30:45;;;;;;;25.63;16.50;;;20.80;75.00;;;;;;5067557;28;20568;-82
2021/07/13 01:33:21;;;;;;;19.15;12.68;;;20.90;75.90;;;;;;5085583;28;20036;-82
2021/07/13 01:35:54;;;;;;;11.90;9.38;;;20.90;77.50;;;;;;5085719;28;20032;-82
2021/07/13 01:38:26;;;;;;;17.15;14.00;;;20.80;76.00;;;;;;5069895;28;20107;-82
2021/07/13 01:40:58;;;;;;;10.38;9.00;;;20.60;79.60;;;;;;5053132;28;20080;-82
2021/07/13 01:43:24;;;;;;;13.40;8.60;;;20.60;75.60;;;;;;5073822;28;20032;-82
2021/07/13 01:45:49;;;;;;;11.43;6.65;;;20.30;76.30;;;;;;5055890;28;20028;-82
2021/07/13 01:48:15;;;;;;;11.48;7.78;;;20.40;77.90;;;;;;5053010;28;20032;-82
2021/07/13 01:50:43;;;;;;;9.10;6.53;;;20.40;77.70;;;;;;5087469;28;20088;-82
2021/07/13 01:53:09;;;;;;;7.05;5.72;;;20.30;79.50;;;;;;5085207;28;20047;-82
2021/07/13 01:55:34;;;;;;;7.60;5.50;;;20.30;79.40;;;;;;5069800;28;20052;-82
2021/07/13 01:58:01;;;;;;;5.82;4.75;;;20.40;79.00;;;;;;5088186;28;20051;-82
2021/07/13 02:00:26;;;;;;;7.57;5.07;;;20.40;77.80;;;;;;5088627;28;20028;-82
2021/07/13 02:02:52;;;;;;;6.00;5.50;;;20.50;78.30;;;;;;5071581;28;20054;-82
2021/07/13 02:05:18;;;;;;;5.45;4.95;;;20.50;76.50;;;;;;5088170;28;20102;-82
2021/07/13 02:07:46;;;;;;;6.07;5.32;;;20.60;76.80;;;;;;5070184;28;20344;-83
2021/07/13 02:10:13;;;;;;;7.97;5.72;;;20.60;77.70;;;;;;5070145;28;20038;-82
2021/07/13 02:12:38;;;;;;;6.25;5.00;;;20.60;76.20;;;;;;5071091;27;20499;-82
2021/07/13 02:15:05;;;;;;;7.65;5.75;;;20.50;78.10;;;;;;5072585;28;20020;-78
2021/07/13 02:17:31;;;;;;;6.93;4.68;;;20.50;76.10;;;;;;5069341;28;20123;-79
2021/07/13 02:20:00;;;;;;;6.45;5.82;;;20.50;77.10;;;;;;5071962;28;20085;-78
2021/07/13 02:22:26;;;;;;;7.78;6.18;;;20.40;77.30;;;;;;5067463;28;20511;-79
2021/07/13 02:24:51;;;;;;;5.35;4.85;;;20.40;76.40;;;;;;5070495;28;20028;-79
2021/07/13 02:27:20;;;;;;;5.07;4.57;;;20.40;76.80;;;;;;5068650;28;20047;-78
2021/07/13 02:29:52;;;;;;;5.28;4.78;;;20.30;75.70;;;;;;5069582;28;20040;-79
2021/07/13 02:32:32;;;;;;;7.78;5.38;;;20.40;77.80;;;;;;5069826;28;20409;-79
2021/07/13 02:34:59;;;;;;;9.77;7.97;;;20.30;76.30;;;;;;5085208;28;20066;-78
2021/07/13 02:37:24;;;;;;;8.48;7.68;;;20.30;76.10;;;;;;5085608;28;20040;-79
2021/07/13 02:39:50;;;;;;;9.35;8.45;;;20.20;76.60;;;;;;5069523;28;20080;-78
2021/07/13 02:42:16;;;;;;;6.00;5.40;;;20.20;77.20;;;;;;5068994;28;20449;-79
2021/07/13 02:44:42;;;;;;;9.85;8.85;;;20.20;77.50;;;;;;5053767;28;20028;-79
2021/07/13 02:47:09;;;;;;;11.88;8.95;;;20.20;79.00;;;;;;5084414;28;20538;-80
2021/07/13 02:49:38;;;;;;;8.30;7.05;;;20.10;77.00;;;;;;5056714;28;20036;-79
2021/07/13 02:52:03;;;;;;;10.30;9.30;;;20.10;77.20;;;;;;5068739;28;20038;-78
2021/07/13 02:54:29;;;;;;;7.15;6.45;;;20.10;76.10;;;;;;5069757;28;20028;-79
2021/07/13 02:56:56;;;;;;;7.05;6.28;;;20.10;77.10;;;;;;5063394;28;20484;-80
2021/07/13 02:59:23;;;;;;;7.38;6.68;;;20.10;76.60;;;;;;5068813;28;24604;-78
2021/07/13 03:01:49;;;;;;;6.55;5.70;;;20.20;77.00;;;;;;5086404;28;20165;-78
2021/07/13 03:04:15;;;;;;;8.48;7.68;;;20.20;77.00;;;;;;5070419;28;20040;-79
2021/07/13 03:06:41;;;;;;;9.55;8.55;;;20.10;76.70;;;;;;5081658;27;20119;-79
2021/07/13 03:09:06;;;;;;;8.85;7.50;;;20.10;77.30;;;;;;5048605;28;20554;-79
2021/07/13 03:11:33;;;;;;;7.78;5.90;;;20.10;77.30;;;;;;5068612;28;20040;-79
2021/07/13 03:14:02;;;;;;;6.10;5.50;;;20.10;76.90;;;;;;5067727;28;20111;-79
2021/07/13 03:16:32;;;;;;;9.15;7.20;;;20.10;77.10;;;;;;5051911;28;20467;-79
2021/07/13 03:18:59;;;;;;;6.45;5.85;;;20.20;77.20;;;;;;5070650;28;20029;-79
2021/07/13 03:21:25;;;;;;;9.27;8.40;;;20.10;78.00;;;;;;5069941;28;20553;-79
2021/07/13 03:23:50;;;;;;;7.88;5.63;;;20.20;79.80;;;;;;5070970;27;20040;-79
2021/07/13 03:26:16;;;;;;;6.25;5.32;;;20.20;79.10;;;;;;5052455;28;20142;-79
2021/07/13 03:28:42;;;;;;;5.82;5.32;;;20.10;77.90;;;;;;5069389;28;20032;-79
2021/07/13 03:31:08;;;;;;;5.88;5.38;;;20.00;78.00;;;;;;5068757;28;20032;-79
2021/07/13 03:33:33;;;;;;;5.95;5.40;;;20.10;77.90;;;;;;5068217;27;20032;-78
2021/07/13 03:35:59;;;;;;;5.53;5.00;;;20.00;79.00;;;;;;5069381;28;20487;-78
2021/07/13 03:38:25;;;;;;;7.70;5.18;;;20.10;78.20;;;;;;5069202;28;20032;-78
2021/07/13 03:40:50;;;;;;;4.78;4.35;;;20.10;79.00;;;;;;5084833;28;20024;-79
2021/07/13 03:43:16;;;;;;;6.97;5.90;;;20.10;79.10;;;;;;5069245;28;20191;-79
2021/07/13 03:45:41;;;;;;;6.13;4.88;;;20.20;80.10;;;;;;5069810;27;20028;-81
2021/07/13 03:48:09;;;;;;;5.05;4.55;;;20.20;79.20;;;;;;5067238;28;20032;-78
2021/07/13 03:50:34;;;;;;;5.50;5.00;;;20.00;78.40;;;;;;5065660;28;20125;-79
2021/07/13 03:53:01;;;;;;;5.18;4.70;;;20.00;78.40;;;;;;5069435;28;20055;-80
2021/07/13 03:55:26;;;;;;;6.32;5.60;;;19.90;78.30;;;;;;5067587;28;20032;-80
2021/07/13 03:57:53;;;;;;;4.28;3.88;;;19.90;78.70;;;;;;5052461;28;20031;-79
2021/07/13 04:00:19;;;;;;;5.32;4.88;;;19.80;78.50;;;;;;5086619;28;20028;-78
2021/07/13 04:02:45;;;;;;;4.38;3.75;;;19.90;79.20;;;;;;5068904;28;20089;-79
2021/07/13 04:05:11;;;;;;;5.10;4.28;;;19.80;78.50;;;;;;5069542;28;20028;-79
2021/07/13 04:07:37;;;;;;;4.90;4.25;;;19.90;79.70;;;;;;5061687;28;20040;-78
2021/07/13 04:10:07;;;;;;;4.88;4.45;;;20.00;80.10;;;;;;5069205;28;20047;-78
2021/07/13 04:12:32;;;;;;;5.32;4.18;;;19.90;80.80;;;;;;5084724;28;20044;-78
2021/07/13 04:14:58;;;;;;;7.20;5.90;;;19.90;80.70;;;;;;5070434;28;20051;-79
2021/07/13 04:17:23;;;;;;;6.22;4.75;;;19.80;80.70;;;;;;5055394;28;20222;-79
2021/07/13 04:19:49;;;;;;;4.85;4.40;;;19.80;80.30;;;;;;5084308;27;20637;-79
2021/07/13 04:22:15;;;;;;;6.20;5.20;;;19.80;80.40;;;;;;5069527;28;20036;-79
2021/07/13 04:24:40;;;;;;;5.70;5.20;;;19.70;80.90;;;;;;5085749;28;20032;-79
2021/07/13 04:27:06;;;;;;;7.25;6.55;;;19.80;81.70;;;;;;5052421;28;20058;-79
2021/07/13 04:29:31;;;;;;;5.70;5.20;;;19.90;82.80;;;;;;5068583;28;20127;-79
2021/07/13 04:31:57;;;;;;;6.55;5.93;;;19.80;81.60;;;;;;5068581;28;20028;-79
2021/07/13 04:34:23;;;;;;;6.03;4.22;;;19.70;80.20;;;;;;5069070;28;20408;-78
2021/07/13 04:36:48;;;;;;;5.40;4.68;;;19.60;79.70;;;;;;5067528;28;20032;-80
2021/07/13 04:39:14;;;;;;;9.13;8.07;;;19.60;79.70;;;;;;5067444;28;20034;-78
2021/07/13 04:41:52;;;;;;;9.88;8.40;;;19.60;79.90;;;;;;5092195;28;20487;-82
2021/07/13 04:44:17;;;;;;;12.70;9.27;;;19.50;79.50;;;;;;5078434;28;20197;-82
2021/07/13 04:46:43;;;;;;;8.57;7.78;;;19.50;80.00;;;;;;5056610;28;20539;-82
2021/07/13 04:49:09;;;;;;;5.30;4.80;;;19.50;80.40;;;;;;5053832;27;20059;-82
2021/07/13 04:51:34;;;;;;;9.60;8.52;;;19.50;79.80;;;;;;5064151;28;20039;-82
2021/07/13 04:54:00;;;;;;;7.40;6.70;;;19.50;79.60;;;;;;5071440;28;20101;-82
2021/07/13 04:56:25;;;;;;;5.38;4.22;;;19.50;80.00;;;;;;5087438;28;20111;-82
2021/07/13 04:58:51;;;;;;;6.80;6.10;;;19.50;80.40;;;;;;5070376;27;20035;-82
2021/07/13 05:01:16;;;;;;;10.00;8.63;;;19.60;80.60;;;;;;5070453;28;20024;-82
2021/07/13 05:03:42;;;;;;;9.38;8.32;;;19.60;80.30;;;;;;5056384;28;20031;-82
2021/07/13 05:06:07;;;;;;;8.32;7.45;;;19.60;80.90;;;;;;5057880;28;20028;-82
2021/07/13 05:08:33;;;;;;;11.85;9.20;;;19.50;80.80;;;;;;5076570;28;20044;-82
2021/07/13 05:10:59;;;;;;;10.75;9.65;;;19.40;79.10;;;;;;5089748;28;20021;-82
2021/07/13 05:13:24;;;;;;;5.65;5.03;;;19.40;80.60;;;;;;5057217;28;20916;-82
2021/07/13 05:15:50;;;;;;;7.10;6.40;;;19.40;80.80;;;;;;5057121;28;20035;-83
2021/07/13 05:18:16;;;;;;;6.03;5.28;;;19.40;80.40;;;;;;5071459;28;20035;-82
2021/07/13 05:20:56;;;;;;;6.80;4.60;;;19.40;80.90;;;;;;5069654;28;20028;-82
2021/07/13 05:23:21;;;;;;;12.75;10.00;;;19.40;80.70;;;;;;5076451;28;20501;-82
2021/07/13 05:25:47;;;;;;;8.93;6.78;;;19.40;81.20;;;;;;5056626;28;20028;-82
2021/07/13 05:28:12;;;;;;;10.15;8.77;;;19.40;80.90;;;;;;5053499;28;20061;-83
2021/07/13 05:30:39;;;;;;;11.75;10.50;;;19.40;81.20;;;;;;5070166;28;20033;-82
2021/07/13 05:33:05;;;;;;;13.55;9.88;;;19.40;80.80;;;;;;5068346;28;20058;-82
2021/07/13 05:35:30;;;;;;;7.15;6.50;;;19.40;82.20;;;;;;5069445;28;20074;-83
2021/07/13 05:37:56;;;;;;;11.38;10.07;;;19.40;82.30;;;;;;5087603;28;20036;-83
2021/07/13 05:40:21;;;;;;;11.70;8.95;;;19.40;83.00;;;;;;5068764;28;20028;-82
2021/07/13 05:42:47;;;;;;;11.65;10.45;;;19.50;82.40;;;;;;5053462;28;20400;-82
2021/07/13 05:45:12;;;;;;;12.75;11.45;;;19.50;80.50;;;;;;5070097;28;20448;-83
2021/07/13 05:47:38;;;;;;;10.98;9.43;;;19.50;80.60;;;;;;5048545;28;20306;-83
2021/07/13 05:50:04;;;;;;;12.10;10.85;;;19.50;82.00;;;;;;5087103;28;20480;-83
2021/07/13 05:52:30;;;;;;;8.15;7.30;;;19.50;80.30;;;;;;5069847;28;20055;-83
2021/07/13 05:54:55;;;;;;;11.75;10.55;;;19.50;81.90;;;;;;5070245;28;20051;-83
2021/07/13 05:57:21;;;;;;;11.18;9.77;;;19.50;81.40;;;;;;5069780;28;20051;-83
2021/07/13 05:59:46;;;;;;;15.82;11.40;;;19.40;84.00;;;;;;5086057;27;20115;-83
2021/07/13 06:02:12;;;;;;;12.43;11.07;;;19.40;82.20;;;;;;5086765;28;20027;-82
2021/07/13 06:04:37;;;;;;;14.88;12.98;;;19.40;82.70;;;;;;5071138;28;20063;-82
2021/07/13 06:07:03;;;;;;;13.50;10.90;;;19.40;84.60;;;;;;5059118;28;20052;-82
2021/07/13 06:09:29;;;;;;;15.18;12.05;;;19.40;84.10;;;;;;5070356;28;20044;-82
2021/07/13 06:11:55;;;;;;;14.75;12.70;;;19.40;85.30;;;;;;5066341;28;20043;-82
2021/07/13 06:14:21;;;;;;;8.55;7.68;;;19.50;82.50;;;;;;5055887;28;20491;-82
2021/07/13 06:16:47;;;;;;;21.65;14.00;;;19.50;83.40;;;;;;5072113;27;20032;-83
2021/07/13 06:19:13;;;;;;;14.52;13.00;;;19.50;81.60;;;;;;5053912;28;20492;-82
2021/07/13 06:21:39;;;;;;;18.50;15.55;;;19.50;81.60;;;;;;5073627;28;20230;-82
2021/07/13 06:24:04;;;;;;;20.38;17.08;;;19.50;83.00;;;;;;5071883;28;20038;-82
2021/07/13 06:26:30;;;;;;;23.60;17.95;;;19.50;86.00;;;;;;5069526;28;20131;-82
2021/07/13 06:28:55;;;;;;;22.40;17.45;;;19.40;84.60;;;;;;5058655;28;20037;-82
2021/07/13 06:31:21;;;;;;;24.10;18.98;;;19.50;88.40;;;;;;5086434;28;20032;-83
2021/07/13 06:33:46;;;;;;;21.77;19.45;;;19.40;87.90;;;;;;5071345;28;20086;-82
2021/07/13 06:36:12;;;;;;;23.35;18.50;;;19.40;87.70;;;;;;5054090;28;20472;-83
2021/07/13 06:38:37;;;;;;;30.02;20.75;;;19.50;89.20;;;;;;5052154;27;20691;-82
2021/07/13 06:41:03;;;;;;;27.55;22.05;;;19.40;88.40;;;;;;5073510;28;20050;-82
2021/07/13 06:43:28;;;;;;;27.23;21.10;;;19.40;88.40;;;;;;5068525;28;20020;-81
2021/07/13 06:45:54;;;;;;;35.60;21.90;;;19.30;89.60;;;;;;5087181;28;20498;-81
2021/07/13 06:48:20;;;;;;;37.75;25.83;;;19.40;90.40;;;;;;5085528;28;20252;-82
2021/07/13 06:50:45;;;;;;;35.08;24.48;;;19.30;90.70;;;;;;5068058;28;20039;-81
2021/07/13 06:53:11;;;;;;;35.38;27.00;;;19.30;90.60;;;;;;5069845;28;20036;-82
2021/07/13 06:55:36;;;;;;;36.28;27.48;;;19.40;91.40;;;;;;5053578;28;20458;-82
2021/07/13 06:58:02;;;;;;;39.28;31.02;;;19.40;91.80;;;;;;5069207;28;20024;-82
2021/07/13 07:00:28;;;;;;;43.53;33.17;;;19.40;92.40;;;;;;5069562;28;20040;-82
2021/07/13 07:02:53;;;;;;;41.22;30.95;;;19.40;92.80;;;;;;5051069;28;20394;-82
2021/07/13 07:05:19;;;;;;;46.38;35.53;;;19.50;92.90;;;;;;5066538;28;20024;-82
2021/07/13 07:07:48;;;;;;;47.58;36.30;;;19.50;93.00;;;;;;5070438;28;20114;-82
2021/07/13 07:10:14;;;;;;;50.67;35.50;;;19.60;93.40;;;;;;5053678;28;20028;-82
2021/07/13 07:12:40;;;;;;;49.28;39.08;;;19.70;93.50;;;;;;5069473;27;20197;-82
2021/07/13 07:15:06;;;;;;;50.35;38.55;;;19.70;94.80;;;;;;5063805;28;20032;-82
2021/07/13 07:17:31;;;;;;;51.42;38.00;;;19.70;93.40;;;;;;5072805;28;20116;-82
2021/07/13 07:20:00;;;;;;;51.60;39.08;;;19.80;94.90;;;;;;5091488;28;20035;-82
2021/07/13 07:22:26;;;;;;;51.00;35.58;;;19.80;93.80;;;;;;5057423;28;20391;-82
2021/07/13 07:24:52;;;;;;;53.58;38.55;;;19.90;93.10;;;;;;5084770;27;20090;-82
2021/07/13 07:27:17;;;;;;;49.40;37.25;;;19.90;93.40;;;;;;5067344;28;20038;-82
2021/07/13 07:29:43;;;;;;;58.72;41.55;;;20.00;93.40;;;;;;5043363;27;20391;-82
2021/07/13 07:32:08;;;;;;;54.10;40.75;;;20.00;93.00;;;;;;5069670;28;20028;-82
2021/07/13 07:34:34;;;;;;;53.15;38.30;;;20.00;93.70;;;;;;5053636;28;20088;-82
2021/07/13 07:36:59;;;;;;;51.75;39.53;;;20.10;93.60;;;;;;5068331;27;20043;-82
2021/07/13 07:39:25;;;;;;;50.03;39.58;;;20.20;94.00;;;;;;5084989;28;20036;-82
2021/07/13 07:41:52;;;;;;;52.30;38.45;;;20.20;93.80;;;;;;5067452;28;20397;-82
2021/07/13 07:44:18;;;;;;;52.67;43.65;;;20.30;93.30;;;;;;5083316;28;20035;-82
2021/07/13 07:46:44;;;;;;;53.10;38.85;;;20.30;93.90;;;;;;5068930;27;20033;-82
2021/07/13 07:49:10;;;;;;;52.22;40.20;;;20.30;93.70;;;;;;5069535;28;20020;-82
2021/07/13 07:51:35;;;;;;;54.30;41.30;;;20.40;94.70;;;;;;5051645;28;20369;-82
2021/07/13 07:54:01;;;;;;;57.70;41.90;;;20.40;94.20;;;;;;5065939;27;20023;-82
2021/07/13 07:56:26;;;;;;;51.35;38.63;;;20.40;93.90;;;;;;5068275;28;20482;-82
2021/07/13 07:58:52;;;;;;;49.25;38.85;;;20.50;94.40;;;;;;5067003;28;20602;-82
2021/07/13 08:01:18;;;;;;;61.28;44.30;;;20.60;94.30;;;;;;5083833;28;20063;-82
2021/07/13 08:03:43;;;;;;;56.63;42.13;;;20.60;94.30;;;;;;5067410;27;20034;-82
2021/07/13 08:06:09;;;;;;;48.63;38.17;;;20.70;95.00;;;;;;5088470;28;20023;-82
2021/07/13 08:08:34;;;;;;;52.88;41.03;;;20.70;94.90;;;;;;5067479;28;20043;-82
2021/07/13 08:11:00;;;;;;;51.95;42.75;;;20.70;95.00;;;;;;5085261;28;20035;-82
2021/07/13 08:13:25;;;;;;;58.28;44.67;;;20.80;95.30;;;;;;5073290;28;20031;-82
2021/07/13 08:15:51;;;;;;;53.38;41.38;;;20.80;94.80;;;;;;5070058;27;20036;-83
2021/07/13 08:18:19;;;;;;;49.17;41.00;;;20.90;95.40;;;;;;5066909;28;20028;-82
2021/07/13 08:20:45;;;;;;;46.75;39.53;;;20.90;95.30;;;;;;5073781;28;20115;-82
2021/07/13 08:23:10;;;;;;;46.40;37.85;;;20.90;95.40;;;;;;5073598;28;20447;-82
2021/07/13 08:25:36;;;;;;;50.47;39.80;;;21.00;95.20;;;;;;5070273;28;20526;-82
2021/07/13 08:28:01;;;;;;;48.97;38.65;;;21.10;95.30;;;;;;5076971;27;20060;-82
2021/07/13 08:30:28;;;;;;;44.55;37.78;;;21.20;95.60;;;;;;5072856;28;20077;-82
2021/07/13 08:32:55;;;;;;;46.80;38.70;;;21.40;96.20;;;;;;5071345;27;20498;-82
2021/07/13 08:35:20;;;;;;;45.70;37.80;;;21.50;95.90;;;;;;5092039;28;20024;-82
2021/07/13 08:37:47;;;;;;;47.28;39.50;;;21.60;96.20;;;;;;5089846;27;20032;-83
2021/07/13 08:40:13;;;;;;;43.85;37.28;;;21.70;95.60;;;;;;5087857;28;20024;-81
2021/07/13 08:42:40;;;;;;;44.75;37.83;;;21.70;95.50;;;;;;5088814;28;20032;-82
2021/07/13 08:45:07;;;;;;;50.75;40.47;;;21.80;96.10;;;;;;5070403;28;20031;-82
2021/07/13 08:47:36;;;;;;;46.35;38.70;;;21.90;95.50;;;;;;5071296;28;21496;-82
2021/07/13 08:50:02;;;;;;;47.38;38.38;;;22.00;95.70;;;;;;5090344;28;20028;-82
2021/07/13 08:52:28;;;;;;;50.70;41.47;;;22.10;96.10;;;;;;5071682;28;20035;-82
2021/07/13 08:54:55;;;;;;;45.00;40.13;;;22.10;96.10;;;;;;5088860;27;20028;-82
2021/07/13 08:57:20;;;;;;;47.08;38.88;;;22.30;96.20;;;;;;5069631;28;20035;-82
2021/07/13 08:59:46;;;;;;;46.75;39.72;;;22.50;95.80;;;;;;5072249;28;20028;-81
2021/07/13 09:02:12;;;;;;;44.88;37.80;;;22.60;96.20;;;;;;5071178;28;20379;-82
2021/07/13 09:04:38;;;;;;;44.00;37.90;;;22.60;95.90;;;;;;5052386;28;20024;-82
2021/07/13 09:07:07;;;;;;;43.72;37.33;;;22.70;95.70;;;;;;5073537;28;20447;-82
2021/07/13 09:09:39;;;;;;;42.33;37.65;;;22.80;95.90;;;;;;5087273;28;20047;-82
2021/07/13 09:12:06;;;;;;;45.08;38.42;;;22.90;96.10;;;;;;5075813;28;20084;-82
2021/07/13 09:15:02;;;;;;;42.75;36.33;;;23.00;95.70;;;;;;5082174;28;20036;-82
2021/07/13 09:17:41;;;;;;;43.28;38.25;;;23.20;95.80;;;;;;5084865;28;20078;-82
2021/07/13 09:20:22;;;;;;;45.38;39.70;;;23.50;95.90;;;;;;5076659;28;20123;-82
2021/07/13 09:22:52;;;;;;;40.67;34.90;;;23.80;96.40;;;;;;5073092;27;20411;-85
2021/07/13 09:25:50;;;;;;;44.35;38.20;;;23.90;95.80;;;;;;5080209;28;20112;-82
2021/07/13 09:28:20;;;;;;;50.38;41.10;;;24.00;96.10;;;;;;5071134;28;20035;-82
2021/07/13 09:30:47;;;;;;;54.40;44.17;;;24.10;95.80;;;;;;5049841;27;20561;-83
2021/07/13 09:33:36;;;;;;;38.20;32.88;;;24.30;95.90;;;;;;5078375;28;20028;-83
2021/07/13 09:36:12;;;;;;;37.92;32.97;;;24.20;95.30;;;;;;5084020;27;20032;-83
2021/07/13 09:38:49;;;;;;;35.80;31.63;;;24.30;95.50;;;;;;5085752;28;20155;-82
2021/07/13 09:41:20;;;;;;;36.53;30.70;;;24.50;96.00;;;;;;5086587;28;20506;-82
2021/07/13 09:43:46;;;;;;;31.90;28.52;;;24.70;95.80;;;;;;5086693;28;20364;-82
2021/07/13 09:46:29;;;;;;;35.22;31.08;;;24.80;95.80;;;;;;5067472;28;20144;-82
2021/07/13 09:49:16;;;;;;;34.70;29.90;;;25.10;96.00;;;;;;5069381;28;20059;-83
2021/07/13 09:51:58;;;;;;;39.90;29.92;;;25.10;95.50;;;;;;5103591;28;20403;-83
2021/07/13 09:54:35;;;;;;;31.13;27.67;;;25.40;95.60;;;;;;5079143;28;20020;-83
2021/07/13 09:57:16;;;;;;;33.78;30.15;;;25.50;95.20;;;;;;5084991;28;20055;-83
2021/07/13 09:59:47;;;;;;;33.53;28.77;;;25.90;95.50;;;;;;5066944;28;20043;-83
2021/07/13 10:02:15;;;;;;;32.50;27.30;;;26.00;95.10;;;;;;5078446;28;20039;-83
2021/07/13 10:04:40;;;;;;;30.17;26.85;;;26.20;94.80;;;;;;5069589;28;20036;-83
2021/07/13 10:07:11;;;;;;;32.83;26.92;;;26.30;94.40;;;;;;5072379;28;20058;-83
2021/07/13 10:09:41;;;;;;;34.28;27.08;;;26.70;93.90;;;;;;5072891;28;20055;-84
2021/07/13 10:12:09;;;;;;;26.70;23.88;;;27.20;94.20;;;;;;5063751;28;20089;-84
2021/07/13 10:14:37;;;;;;;25.58;22.83;;;27.40;94.10;;;;;;5079060;28;20354;-84
2021/07/13 10:17:03;;;;;;;27.90;24.98;;;27.60;93.10;;;;;;5055214;28;20056;-84
2021/07/13 10:19:29;;;;;;;28.30;25.33;;;27.70;92.70;;;;;;5054733;28;20044;-84
2021/07/13 10:21:55;;;;;;;24.23;21.25;;;28.10;92.80;;;;;;5068243;28;20024;-84
2021/07/13 10:24:23;;;;;;;26.77;22.67;;;28.40;92.30;;;;;;5070944;28;20104;-84
2021/07/13 10:26:52;;;;;;;23.42;20.75;;;28.70;91.60;;;;;;5069700;27;20066;-84
2021/07/13 10:29:33;;;;;;;23.58;20.13;;;28.90;91.80;;;;;;5055440;28;20554;-84
2021/07/13 10:32:03;;;;;;;21.45;19.33;;;29.10;90.70;;;;;;5080888;28;20067;-84
2021/07/13 10:34:51;;;;;;;22.67;19.38;;;29.20;90.80;;;;;;5056687;28;20077;-85
2021/07/13 10:37:37;;;;;;;23.38;18.85;;;29.30;89.30;;;;;;5086021;28;20098;-84
2021/07/13 10:40:08;;;;;;;21.90;19.65;;;29.40;89.80;;;;;;5063288;28;20127;-86
2021/07/13 10:42:42;;;;;;;23.48;21.15;;;29.40;86.30;;;;;;5068362;28;20028;-85
2021/07/13 10:45:37;;;;;;;23.13;19.60;;;29.40;86.30;;;;;;5086987;27;20023;-85
2021/07/13 10:48:15;;;;;;;16.95;15.05;;;29.30;86.30;;;;;;5065506;28;20042;-85
2021/07/13 10:50:46;;;;;;;22.58;19.70;;;29.40;86.80;;;;;;5077971;28;20527;-86
2021/07/13 10:53:20;;;;;;;21.13;16.23;;;29.40;85.80;;;;;;5085260;27;20032;-85
2021/07/13 10:55:56;;;;;;;17.30;15.50;;;29.40;85.80;;;;;;5081909;28;20032;-86
2021/07/13 10:58:34;;;;;;;22.20;19.90;;;29.40;85.80;;;;;;5071456;28;20032;-85
2021/07/13 11:01:30;;;;;;;19.67;17.65;;;29.30;84.90;;;;;;5066415;28;20085;-86
2021/07/13 11:03:57;;;;;;;16.25;14.63;;;29.30;83.80;;;;;;5066216;28;20039;-86
2021/07/13 11:06:53;;;;;;;19.75;17.73;;;29.10;83.20;;;;;;5070013;28;20028;-86
2021/07/13 11:09:29;;;;;;;20.02;18.00;;;29.20;83.90;;;;;;5080390;28;20059;-86
2021/07/13 11:12:09;;;;;;;15.57;14.02;;;29.10;84.00;;;;;;5072359;27;20032;-85
2021/07/13 11:14:47;;;;;;;17.27;15.48;;;29.00;82.70;;;;;;5065967;28;20483;-87
2021/07/13 11:17:19;;;;;;;19.75;17.35;;;29.10;83.10;;;;;;5083809;28;20024;-86
2021/07/13 11:19:45;;;;;;;15.65;14.18;;;29.20;82.60;;;;;;5086524;28;20024;-86
2021/07/13 11:22:14;;;;;;;18.15;14.68;;;29.20;82.60;;;;;;5051689;28;20085;-87
2021/07/13 11:24:40;;;;;;;14.13;12.63;;;29.30;82.30;;;;;;5074030;28;20032;-85
2021/07/13 11:27:05;;;;;;;18.52;13.23;;;29.40;82.60;;;;;;5091412;28;20039;-85
2021/07/13 11:29:31;;;;;;;15.70;13.75;;;29.50;81.30;;;;;;5067372;28;20042;-86
2021/07/13 11:32:02;;;;;;;13.45;12.07;;;29.60;81.10;;;;;;5045006;28;20032;-87
2021/07/13 11:34:37;;;;;;;14.52;11.88;;;29.70;81.40;;;;;;5067391;28;20480;-85
2021/07/13 11:37:03;;;;;;;11.48;10.23;;;29.80;80.30;;;;;;5052553;28;20077;-85
2021/07/13 11:39:34;;;;;;;15.50;13.43;;;29.80;80.40;;;;;;5052468;28;20043;-85
2021/07/13 11:42:06;;;;;;;14.63;13.10;;;29.90;79.70;;;;;;5068822;28;20047;-85
2021/07/13 11:44:32;;;;;;;13.88;11.90;;;30.00;79.50;;;;;;5083900;28;20039;-85
2021/07/13 11:46:57;;;;;;;12.93;11.80;;;30.10;79.00;;;;;;5068472;28;20029;-85
2021/07/13 11:49:27;;;;;;;12.50;11.20;;;30.00;78.30;;;;;;5088296;28;20024;-85
2021/07/13 11:52:00;;;;;;;11.88;10.02;;;30.10;77.50;;;;;;5085294;28;20309;-85
2021/07/13 11:54:33;;;;;;;12.32;11.13;;;30.20;78.60;;;;;;5086478;28;20024;-85
2021/07/13 11:57:00;;;;;;;12.98;11.40;;;30.30;77.80;;;;;;5067583;28;20032;-83
2021/07/13 11:59:28;;;;;;;14.75;11.05;;;30.50;76.80;;;;;;5084087;28;20046;-85
2021/07/13 12:01:55;;;;;;;13.38;12.07;;;30.70;75.50;;;;;;5044870;28;20035;-84
2021/07/13 12:04:22;;;;;;;11.82;10.77;;;30.80;75.00;;;;;;5084544;28;20529;-84
2021/07/13 12:06:52;;;;;;;12.25;10.88;;;30.80;74.80;;;;;;5084718;28;20040;-85
2021/07/13 12:09:23;;;;;;;12.20;10.90;;;30.80;75.60;;;;;;5087632;28;20036;-85
2021/07/13 12:11:49;;;;;;;12.05;10.43;;;30.90;74.50;;;;;;5074031;28;20488;-85
2021/07/13 12:14:15;;;;;;;11.43;10.45;;;31.00;74.40;;;;;;5066025;28;20025;-85
2021/07/13 12:16:41;;;;;;;12.25;10.82;;;31.10;74.10;;;;;;5069398;28;20039;-85
2021/07/13 12:19:12;;;;;;;12.18;10.35;;;31.20;74.20;;;;;;5058587;28;20107;-85
2021/07/13 12:21:42;;;;;;;9.20;8.32;;;31.50;73.70;;;;;;5071104;28;20068;-84
2021/07/13 12:24:13;;;;;;;10.90;9.27;;;31.50;72.90;;;;;;5075443;28;20028;-84
2021/07/13 12:26:38;;;;;;;12.48;11.27;;;31.70;73.20;;;;;;5067091;28;20063;-84
2021/07/13 12:29:11;;;;;;;11.48;9.45;;;32.00;71.00;;;;;;5092707;28;20089;-84
2021/07/13 12:31:38;;;;;;;10.63;9.55;;;32.00;71.60;;;;;;5066092;28;20413;-84
2021/07/13 12:34:05;;;;;;;10.85;9.82;;;32.20;71.30;;;;;;5088331;28;20408;-84
2021/07/13 12:36:34;;;;;;;10.80;9.95;;;32.40;71.00;;;;;;5050993;28;20036;-84
2021/07/13 12:39:20;;;;;;;15.05;10.65;;;32.60;70.60;;;;;;5085506;27;20511;-84
2021/07/13 12:41:55;;;;;;;9.70;8.73;;;32.50;67.40;;;;;;5083794;28;20081;-83